EGKB/BQH METAR and TAF weather

Enter ICAO airport designator
Station Type Date Time Source
EGKB METAR 2021/05/11 21:20 UTC NOAA

EGKB 112120Z 19013KT 9999 BKN020 10/07 Q1008


Station Type Date Time Source
EGKB Decoded METAR 2021/05/11 21:20 UTC NOAA

Biggin Hill , United Kingdom (EGKB) 51-19N 000-02E
May 11, 2021 - 05:20 PM EDT / 2021.05.11 2120 UTC
Wind: from the S (190 degrees) at 15 MPH (13 KT):0
Visibility: greater than 7 mile(s):0
Sky conditions: mostly cloudy
Temperature: 50 F (10 C)
Dew Point: 44 F (7 C)
Relative Humidity: 81%
Pressure (altimeter): 29.77 in. Hg (1008 hPa)
ob: EGKB 112120Z 19013KT 9999 BKN020 10/07 Q1008
cycle: 21

Station Type Date Time Source
EGKB TAF 2020/08/09 21:40 UTC NOAA

TAF EGKB 092127Z 0921/1021 CNL

Example: see airport list